PWSweather.com
Personal Weather Stations
Station Observations
WESTON01
WestonSuperMareGB BS22 8RT

WestonSuperMareGB BS22 8RT

Lat: 51.351508, Lon: -2.933373

Elevation: 15

Station Type: Fine Offset WH1080

http://www.westonweather.co.uk

High Low Average
Temperature 70.8°F21.6°C 55.1°F12.8°C 62.2°F16.8°C
Dew Point 53.5°F11.9°C 42.3°F5.7°C 47.1°F8.4°C
Winds 15.3 mph 24.6 kmh Calm Calm 7.0 mph W11.3 kmh W
Wind Gusts 26.2 mph42.2 kmh -- 10.0 mph16.1 kmh
Humidity 77% 45% 59%
Pressure 30.02 in1016.6 mb 29.90 in1012.5 mb -
Precipitation 0.00 in0.0 mm - -
Hour Temp Dew Point Humidity Winds Wind Gusts Pressure Precip Precip Rate Daily Precip Total
12:00 AM 58.7°F14.8°C 48.6°F9.2°C 69% 2.8 mph NW4.5 kmh NW 4.2 mph6.8 kmh 29.90 in1012.5 mb 0.00 in0.0 mm 0.00 in0.0 mm 0.00 in0.0 mm
12:05 AM 58.5°F14.7°C 48.4°F9.1°C 69% 2.6 mph NW4.2 kmh NW 5.4 mph8.7 kmh 29.90 in1012.5 mb 0.00 in0.0 mm 0.00 in0.0 mm 0.00 in0.0 mm
12:10 AM 58.5°F14.7°C 48.4°F9.1°C 69% 2.7 mph NW4.3 kmh NW 5.4 mph8.7 kmh 29.90 in1012.5 mb 0.00 in0.0 mm 0.00 in0.0 mm 0.00 in0.0 mm
12:15 AM 58.5°F14.7°C 48.4°F9.1°C 69% 2.7 mph NW4.3 kmh NW 5.4 mph8.7 kmh 29.90 in1012.5 mb 0.00 in0.0 mm 0.00 in0.0 mm 0.00 in0.0 mm
12:20 AM 58.5°F14.7°C 48.4°F9.1°C 69% 2.3 mph NW3.7 kmh NW 4.5 mph7.2 kmh 29.90 in1012.5 mb 0.00 in0.0 mm 0.00 in0.0 mm 0.00 in0.0 mm
12:25 AM 58.4°F14.7°C 48.6°F9.2°C 70% 2.3 mph NW3.7 kmh NW 4.2 mph6.8 kmh 29.90 in1012.5 mb 0.00 in0.0 mm 0.00 in0.0 mm 0.00 in0.0 mm
12:30 AM 58.4°F14.7°C 48.6°F9.2°C 70% 2.5 mph NW4.0 kmh NW 4.5 mph7.2 kmh 29.90 in1012.5 mb 0.00 in0.0 mm 0.00 in0.0 mm 0.00 in0.0 mm
12:35 AM 58.4°F14.7°C 48.6°F9.2°C 70% 2.4 mph NW3.9 kmh NW 4.5 mph7.2 kmh 29.90 in1012.5 mb 0.00 in0.0 mm 0.00 in0.0 mm 0.00 in0.0 mm
12:40 AM 58.4°F14.7°C 48.6°F9.2°C 70% 2.4 mph NW3.9 kmh NW 3.9 mph6.3 kmh 29.90 in1012.5 mb 0.00 in0.0 mm 0.00 in0.0 mm 0.00 in0.0 mm
12:45 AM 58.4°F14.7°C 48.6°F9.2°C 70% 2.8 mph NW4.5 kmh NW 4.5 mph7.2 kmh 29.90 in1012.5 mb 0.00 in0.0 mm 0.00 in0.0 mm 0.00 in0.0 mm
12:50 AM 58.4°F14.7°C 48.6°F9.2°C 70% 3.0 mph NW4.8 kmh NW 4.5 mph7.2 kmh 29.90 in1012.5 mb 0.00 in0.0 mm 0.00 in0.0 mm 0.00 in0.0 mm
12:55 AM 58.5°F14.7°C 48.8°F9.3°C 70% 2.4 mph WNW3.9 kmh WNW 3.9 mph6.3 kmh 29.90 in1012.5 mb 0.00 in0.0 mm 0.00 in0.0 mm 0.00 in0.0 mm
01:00 AM 58.5°F14.7°C 48.8°F9.3°C 70% 1.9 mph NW3.1 kmh NW 3.9 mph6.3 kmh 29.90 in1012.5 mb 0.00 in0.0 mm 0.00 in0.0 mm 0.00 in0.0 mm
01:05 AM 58.5°F14.7°C 48.8°F9.3°C 70% 1.8 mph NW2.9 kmh NW 4.8 mph7.7 kmh 29.90 in1012.5 mb 0.00 in0.0 mm 0.00 in0.0 mm 0.00 in0.0 mm
01:10 AM 58.5°F14.7°C 48.8°F9.3°C 70% 1.8 mph NW2.9 kmh NW 4.8 mph7.7 kmh 29.90 in1012.5 mb 0.00 in0.0 mm 0.00 in0.0 mm 0.00 in0.0 mm
01:15 AM 58.5°F14.7°C 48.8°F9.3°C 70% 2.3 mph NW3.7 kmh NW 5.4 mph8.7 kmh 29.90 in1012.5 mb 0.00 in0.0 mm 0.00 in0.0 mm 0.00 in0.0 mm
01:20 AM 58.4°F14.7°C 48.2°F9.0°C 69% 2.4 mph NW3.9 kmh NW 5.4 mph8.7 kmh 29.90 in1012.5 mb 0.00 in0.0 mm 0.00 in0.0 mm 0.00 in0.0 mm
01:25 AM 58.4°F14.7°C 48.2°F9.0°C 69% 1.3 mph NW2.1 kmh NW 4.5 mph7.2 kmh 29.90 in1012.5 mb 0.00 in0.0 mm 0.00 in0.0 mm 0.00 in0.0 mm
01:30 AM 58.4°F14.7°C 48.2°F9.0°C 69% 1.6 mph NW2.6 kmh NW 3.3 mph5.3 kmh 29.90 in1012.5 mb 0.00 in0.0 mm 0.00 in0.0 mm 0.00 in0.0 mm
01:35 AM 58.2°F14.6°C 48.1°F8.9°C 69% 1.9 mph NW3.1 kmh NW 3.3 mph5.3 kmh 29.90 in1012.5 mb 0.00 in0.0 mm 0.00 in0.0 mm 0.00 in0.0 mm
01:40 AM 58.2°F14.6°C 48.1°F8.9°C 69% 2.0 mph NNW3.2 kmh NNW 3.9 mph6.3 kmh 29.90 in1012.5 mb 0.00 in0.0 mm 0.00 in0.0 mm 0.00 in0.0 mm
01:45 AM 58.0°F14.4°C 47.9°F8.8°C 69% 2.6 mph NNW4.2 kmh NNW 4.2 mph6.8 kmh 29.90 in1012.5 mb 0.00 in0.0 mm 0.00 in0.0 mm 0.00 in0.0 mm
01:50 AM 58.0°F14.4°C 47.9°F8.8°C 69% 3.5 mph NNW5.6 kmh NNW 4.8 mph7.7 kmh 29.90 in1012.5 mb 0.00 in0.0 mm 0.00 in0.0 mm 0.00 in0.0 mm
01:55 AM 57.8°F14.3°C 47.7°F8.7°C 69% 3.1 mph NNW5.0 kmh NNW 4.8 mph7.7 kmh 29.90 in1012.5 mb 0.00 in0.0 mm 0.00 in0.0 mm 0.00 in0.0 mm
02:00 AM 57.7°F14.3°C 47.5°F8.6°C 69% 2.8 mph N4.5 kmh N 3.9 mph6.3 kmh 29.90 in1012.5 mb 0.00 in0.0 mm 0.00 in0.0 mm 0.00 in0.0 mm
02:05 AM 57.7°F14.3°C 47.9°F8.8°C 70% 2.5 mph N4.0 kmh N 3.9 mph6.3 kmh 29.90 in1012.5 mb 0.00 in0.0 mm 0.00 in0.0 mm 0.00 in0.0 mm
02:10 AM 57.7°F14.3°C 47.9°F8.8°C 70% 2.2 mph N3.5 kmh N 3.3 mph5.3 kmh 29.90 in1012.5 mb 0.00 in0.0 mm 0.00 in0.0 mm 0.00 in0.0 mm
02:15 AM 57.3°F14.1°C 47.6°F8.7°C 70% 1.3 mph NNW2.1 kmh NNW 3.3 mph5.3 kmh 29.90 in1012.5 mb 0.00 in0.0 mm 0.00 in0.0 mm 0.00 in0.0 mm
02:20 AM 57.3°F14.1°C 47.6°F8.7°C 70% 1.1 mph NNW1.8 kmh NNW 3.3 mph5.3 kmh 29.90 in1012.5 mb 0.00 in0.0 mm 0.00 in0.0 mm 0.00 in0.0 mm
02:25 AM 57.1°F13.9°C 47.4°F8.6°C 70% 0.6 mph NNW1.0 kmh NNW 2.1 mph3.4 kmh 29.90 in1012.5 mb 0.00 in0.0 mm 0.00 in0.0 mm 0.00 in0.0 mm
02:30 AM 57.1°F13.9°C 47.4°F8.6°C 70% 0.4 mph NNE0.6 kmh NNE 1.5 mph2.4 kmh 29.90 in1012.5 mb 0.00 in0.0 mm 0.00 in0.0 mm 0.00 in0.0 mm
02:35 AM 56.9°F13.8°C 47.2°F8.4°C 70% 0.2 mph NE0.3 kmh NE 1.2 mph1.9 kmh 29.90 in1012.5 mb 0.00 in0.0 mm 0.00 in0.0 mm 0.00 in0.0 mm
02:40 AM 56.8°F13.8°C 47.4°F8.6°C 71% 0.9 mph E1.4 kmh E 3.6 mph5.8 kmh 29.90 in1012.5 mb 0.00 in0.0 mm 0.00 in0.0 mm 0.00 in0.0 mm
02:45 AM 56.8°F13.8°C 47.8°F8.8°C 72% 0.9 mph E1.4 kmh E 3.6 mph5.8 kmh 29.90 in1012.5 mb 0.00 in0.0 mm 0.00 in0.0 mm 0.00 in0.0 mm
02:50 AM 56.8°F13.8°C 47.8°F8.8°C 72% 0.6 mph E1.0 kmh E 1.8 mph2.9 kmh 29.90 in1012.5 mb 0.00 in0.0 mm 0.00 in0.0 mm 0.00 in0.0 mm
02:55 AM 56.6°F13.7°C 47.6°F8.7°C 72% 0.5 mph E0.8 kmh E 1.8 mph2.9 kmh 29.90 in1012.5 mb 0.00 in0.0 mm 0.00 in0.0 mm 0.00 in0.0 mm
03:00 AM 56.4°F13.6°C 47.5°F8.6°C 72% 0.4 mph E0.6 kmh E 2.1 mph3.4 kmh 29.90 in1012.5 mb 0.00 in0.0 mm 0.00 in0.0 mm 0.00 in0.0 mm
03:05 AM 56.2°F13.4°C 47.7°F8.7°C 73% 0.5 mph E0.8 kmh E 2.1 mph3.4 kmh 29.90 in1012.5 mb 0.00 in0.0 mm 0.00 in0.0 mm 0.00 in0.0 mm
03:10 AM 56.2°F13.4°C 47.7°F8.7°C 73% 0.3 mph E0.5 kmh E 2.1 mph3.4 kmh 29.90 in1012.5 mb 0.00 in0.0 mm 0.00 in0.0 mm 0.00 in0.0 mm
03:15 AM 56.0°F13.3°C 47.5°F8.6°C 73% Calm Calm -- 29.90 in1012.5 mb 0.00 in0.0 mm 0.00 in0.0 mm 0.00 in0.0 mm
03:20 AM 56.0°F13.3°C 47.5°F8.6°C 73% Calm Calm -- 29.90 in1012.5 mb 0.00 in0.0 mm 0.00 in0.0 mm 0.00 in0.0 mm
03:25 AM 55.8°F13.2°C 47.7°F8.7°C 74% Calm Calm -- 29.90 in1012.5 mb 0.00 in0.0 mm 0.00 in0.0 mm 0.00 in0.0 mm
03:30 AM 55.7°F13.2°C 47.5°F8.6°C 74% Calm Calm -- 29.90 in1012.5 mb 0.00 in0.0 mm 0.00 in0.0 mm 0.00 in0.0 mm
03:35 AM 55.5°F13.1°C 47.3°F8.5°C 74% Calm Calm -- 29.90 in1012.5 mb 0.00 in0.0 mm 0.00 in0.0 mm 0.00 in0.0 mm
03:40 AM 55.5°F13.1°C 47.7°F8.7°C 75% Calm Calm -- 29.90 in1012.5 mb 0.00 in0.0 mm 0.00 in0.0 mm 0.00 in0.0 mm
03:45 AM 55.5°F13.1°C 47.7°F8.7°C 75% Calm Calm -- 29.90 in1012.5 mb 0.00 in0.0 mm 0.00 in0.0 mm 0.00 in0.0 mm
03:50 AM 55.3°F12.9°C 47.5°F8.6°C 75% 1.3 mph NW2.1 kmh NW 3.6 mph5.8 kmh 29.90 in1012.5 mb 0.00 in0.0 mm 0.00 in0.0 mm 0.00 in0.0 mm
03:55 AM 55.3°F12.9°C 47.5°F8.6°C 75% 2.6 mph NNW4.2 kmh NNW 4.5 mph7.2 kmh 29.90 in1012.5 mb 0.00 in0.0 mm 0.00 in0.0 mm 0.00 in0.0 mm
04:00 AM 55.5°F13.1°C 47.3°F8.5°C 74% 2.7 mph N4.3 kmh N 4.5 mph7.2 kmh 29.90 in1012.5 mb 0.00 in0.0 mm 0.00 in0.0 mm 0.00 in0.0 mm
04:05 AM 55.5°F13.1°C 47.3°F8.5°C 74% 2.7 mph N4.3 kmh N 3.6 mph5.8 kmh 29.90 in1012.5 mb 0.00 in0.0 mm 0.00 in0.0 mm 0.00 in0.0 mm
04:10 AM 55.7°F13.2°C 47.5°F8.6°C 74% 3.4 mph NNW5.5 kmh NNW 5.7 mph9.2 kmh 29.90 in1012.5 mb 0.00 in0.0 mm 0.00 in0.0 mm 0.00 in0.0 mm
04:15 AM 55.7°F13.2°C 47.5°F8.6°C 74% 3.2 mph NNW5.1 kmh NNW 5.7 mph9.2 kmh 29.90 in1012.5 mb 0.00 in0.0 mm 0.00 in0.0 mm 0.00 in0.0 mm
04:20 AM 55.8°F13.2°C 47.7°F8.7°C 74% 2.3 mph NNW3.7 kmh NNW 4.2 mph6.8 kmh 29.90 in1012.5 mb 0.00 in0.0 mm 0.00 in0.0 mm 0.00 in0.0 mm
04:25 AM 55.8°F13.2°C 47.7°F8.7°C 74% 2.3 mph N3.7 kmh N 3.3 mph5.3 kmh 29.90 in1012.5 mb 0.00 in0.0 mm 0.00 in0.0 mm 0.00 in0.0 mm
04:30 AM 55.8°F13.2°C 47.7°F8.7°C 74% 2.2 mph N3.5 kmh N 3.6 mph5.8 kmh 29.90 in1012.5 mb 0.00 in0.0 mm 0.00 in0.0 mm 0.00 in0.0 mm
04:35 AM 55.8°F13.2°C 47.7°F8.7°C 74% 3.0 mph NNW4.8 kmh NNW 5.1 mph8.2 kmh 29.90 in1012.5 mb 0.00 in0.0 mm 0.00 in0.0 mm 0.00 in0.0 mm
04:40 AM 55.8°F13.2°C 47.7°F8.7°C 74% 3.2 mph NNW5.1 kmh NNW 5.1 mph8.2 kmh 29.90 in1012.5 mb 0.00 in0.0 mm 0.00 in0.0 mm 0.00 in0.0 mm
04:45 AM 55.8°F13.2°C 47.7°F8.7°C 74% 1.8 mph NW2.9 kmh NW 4.8 mph7.7 kmh 29.90 in1012.5 mb 0.00 in0.0 mm 0.00 in0.0 mm 0.00 in0.0 mm
04:50 AM 55.7°F13.2°C 47.5°F8.6°C 74% 0.3 mph NW0.5 kmh NW 1.5 mph2.4 kmh 29.90 in1012.5 mb 0.00 in0.0 mm 0.00 in0.0 mm 0.00 in0.0 mm
04:55 AM 55.7°F13.2°C 47.5°F8.6°C 74% 0.1 mph NW0.2 kmh NW 1.2 mph1.9 kmh 29.90 in1012.5 mb 0.00 in0.0 mm 0.00 in0.0 mm 0.00 in0.0 mm
05:00 AM 55.5°F13.1°C 47.3°F8.5°C 74% Calm Calm -- 29.90 in1012.5 mb 0.00 in0.0 mm 0.00 in0.0 mm 0.00 in0.0 mm
05:05 AM 55.5°F13.1°C 47.3°F8.5°C 74% Calm Calm -- 29.90 in1012.5 mb 0.00 in0.0 mm 0.00 in0.0 mm 0.00 in0.0 mm
05:10 AM 55.3°F12.9°C 47.2°F8.4°C 74% Calm Calm -- 29.90 in1012.5 mb 0.00 in0.0 mm 0.00 in0.0 mm 0.00 in0.0 mm
05:15 AM 55.1°F12.8°C 47.0°F8.3°C 74% Calm Calm -- 29.90 in1012.5 mb 0.00 in0.0 mm 0.00 in0.0 mm 0.00 in0.0 mm
05:20 AM 55.1°F12.8°C 47.0°F8.3°C 74% Calm Calm -- 29.90 in1012.5 mb 0.00 in0.0 mm 0.00 in0.0 mm 0.00 in0.0 mm
05:25 AM 55.1°F12.8°C 47.3°F8.5°C 75% Calm Calm -- 29.90 in1012.5 mb 0.00 in0.0 mm 0.00 in0.0 mm 0.00 in0.0 mm
05:30 AM 55.1°F12.8°C 47.3°F8.5°C 75% Calm Calm -- 29.90 in1012.5 mb 0.00 in0.0 mm 0.00 in0.0 mm 0.00 in0.0 mm
05:35 AM 55.1°F12.8°C 47.3°F8.5°C 75% Calm Calm -- 29.90 in1012.5 mb 0.00 in0.0 mm 0.00 in0.0 mm 0.00 in0.0 mm
05:40 AM 55.1°F12.8°C 47.3°F8.5°C 75% Calm Calm -- 29.90 in1012.5 mb 0.00 in0.0 mm 0.00 in0.0 mm 0.00 in0.0 mm
05:45 AM 55.1°F12.8°C 47.3°F8.5°C 75% 0.7 mph N1.1 kmh N 3.6 mph5.8 kmh 29.90 in1012.5 mb 0.00 in0.0 mm 0.00 in0.0 mm 0.00 in0.0 mm
05:50 AM 55.3°F12.9°C 47.9°F8.8°C 76% 1.7 mph NNW2.7 kmh NNW 3.6 mph5.8 kmh 29.90 in1012.5 mb 0.00 in0.0 mm 0.00 in0.0 mm 0.00 in0.0 mm
05:55 AM 55.5°F13.1°C 48.0°F8.9°C 76% 2.5 mph NNW4.0 kmh NNW 4.5 mph7.2 kmh 29.90 in1012.5 mb 0.00 in0.0 mm 0.00 in0.0 mm 0.00 in0.0 mm
06:00 AM 55.8°F13.2°C 48.7°F9.3°C 77% 3.0 mph NNW4.8 kmh NNW 4.5 mph7.2 kmh 29.90 in1012.5 mb 0.00 in0.0 mm 0.00 in0.0 mm 0.00 in0.0 mm
06:05 AM 56.0°F13.3°C 48.6°F9.2°C 76% 2.6 mph NNW4.2 kmh NNW 4.5 mph7.2 kmh 29.90 in1012.5 mb 0.00 in0.0 mm 0.00 in0.0 mm 0.00 in0.0 mm
06:10 AM 56.4°F13.6°C 48.9°F9.4°C 76% 1.8 mph NNW2.9 kmh NNW 4.5 mph7.2 kmh 29.90 in1012.5 mb 0.00 in0.0 mm 0.00 in0.0 mm 0.00 in0.0 mm
06:15 AM 56.4°F13.6°C 48.9°F9.4°C 76% 2.5 mph NNW4.0 kmh NNW 4.8 mph7.7 kmh 29.90 in1012.5 mb 0.00 in0.0 mm 0.00 in0.0 mm 0.00 in0.0 mm
06:20 AM 56.8°F13.8°C 49.3°F9.6°C 76% 3.7 mph NNW6.0 kmh NNW 5.1 mph8.2 kmh 29.90 in1012.5 mb 0.00 in0.0 mm 0.00 in0.0 mm 0.00 in0.0 mm
06:25 AM 56.9°F13.8°C 49.4°F9.7°C 76% 4.5 mph NNW7.2 kmh NNW 5.1 mph8.2 kmh 29.90 in1012.5 mb 0.00 in0.0 mm 0.00 in0.0 mm 0.00 in0.0 mm
06:30 AM 56.9°F13.8°C 49.1°F9.5°C 75% 3.9 mph NNW6.3 kmh NNW 5.1 mph8.2 kmh 29.90 in1012.5 mb 0.00 in0.0 mm 0.00 in0.0 mm 0.00 in0.0 mm
06:35 AM 57.1°F13.9°C 49.3°F9.6°C 75% 2.9 mph NNW4.7 kmh NNW 4.2 mph6.8 kmh 29.90 in1012.5 mb 0.00 in0.0 mm 0.00 in0.0 mm 0.00 in0.0 mm
06:40 AM 57.5°F14.2°C 49.6°F9.8°C 75% 1.8 mph N2.9 kmh N 3.3 mph5.3 kmh 29.90 in1012.5 mb 0.00 in0.0 mm 0.00 in0.0 mm 0.00 in0.0 mm
06:45 AM 57.5°F14.2°C 49.6°F9.8°C 75% 1.3 mph N2.1 kmh N 3.3 mph5.3 kmh 29.90 in1012.5 mb 0.00 in0.0 mm 0.00 in0.0 mm 0.00 in0.0 mm
06:50 AM 57.7°F14.3°C 49.4°F9.7°C 74% 1.7 mph NNE2.7 kmh NNE 3.3 mph5.3 kmh 29.90 in1012.5 mb 0.00 in0.0 mm 0.00 in0.0 mm 0.00 in0.0 mm
06:55 AM 57.8°F14.3°C 49.6°F9.8°C 74% 2.2 mph NNE3.5 kmh NNE 5.1 mph8.2 kmh 29.90 in1012.5 mb 0.00 in0.0 mm 0.00 in0.0 mm 0.00 in0.0 mm
07:00 AM 58.0°F14.4°C 49.8°F9.9°C 74% 1.5 mph NE2.4 kmh NE 5.1 mph8.2 kmh 29.90 in1012.5 mb 0.00 in0.0 mm 0.00 in0.0 mm 0.00 in0.0 mm
07:05 AM 58.2°F14.6°C 49.6°F9.8°C 73% 0.5 mph NW0.8 kmh NW 3.6 mph5.8 kmh 29.90 in1012.5 mb 0.00 in0.0 mm 0.00 in0.0 mm 0.00 in0.0 mm
07:10 AM 58.4°F14.7°C 49.7°F9.8°C 73% 0.8 mph NNW1.3 kmh NNW 3.0 mph4.8 kmh 29.90 in1012.5 mb 0.00 in0.0 mm 0.00 in0.0 mm 0.00 in0.0 mm
07:15 AM 58.4°F14.7°C 49.7°F9.8°C 73% 1.1 mph N1.8 kmh N 3.0 mph4.8 kmh 29.90 in1012.5 mb 0.00 in0.0 mm 0.00 in0.0 mm 0.00 in0.0 mm
07:20 AM 58.5°F14.7°C 49.9°F9.9°C 73% 0.6 mph NNE1.0 kmh NNE 3.0 mph4.8 kmh 29.90 in1012.5 mb 0.00 in0.0 mm 0.00 in0.0 mm 0.00 in0.0 mm
07:25 AM 58.7°F14.8°C 50.1°F10.1°C 73% 0.8 mph N1.3 kmh N 3.0 mph4.8 kmh 29.90 in1012.5 mb 0.00 in0.0 mm 0.00 in0.0 mm 0.00 in0.0 mm
07:30 AM 59.1°F15.1°C 50.1°F10.1°C 72% 1.6 mph NW2.6 kmh NW 3.6 mph5.8 kmh 29.90 in1012.5 mb 0.00 in0.0 mm 0.00 in0.0 mm 0.00 in0.0 mm
07:35 AM 59.3°F15.2°C 50.2°F10.1°C 72% 2.8 mph NW4.5 kmh NW 5.4 mph8.7 kmh 29.90 in1012.5 mb 0.00 in0.0 mm 0.00 in0.0 mm 0.00 in0.0 mm
07:40 AM 59.5°F15.3°C 50.4°F10.2°C 72% 2.9 mph NNW4.7 kmh NNW 5.4 mph8.7 kmh 29.90 in1012.5 mb 0.00 in0.0 mm 0.00 in0.0 mm 0.00 in0.0 mm
07:45 AM 59.6°F15.3°C 50.2°F10.1°C 71% 1.5 mph NW2.4 kmh NW 3.6 mph5.8 kmh 29.90 in1012.5 mb 0.00 in0.0 mm 0.00 in0.0 mm 0.00 in0.0 mm
07:50 AM 59.8°F15.4°C 50.4°F10.2°C 71% 2.1 mph NNW3.4 kmh NNW 5.7 mph9.2 kmh 29.90 in1012.5 mb 0.00 in0.0 mm 0.00 in0.0 mm 0.00 in0.0 mm
07:55 AM 60.3°F15.7°C 50.5°F10.3°C 70% 3.2 mph N5.1 kmh N 5.7 mph9.2 kmh 29.90 in1012.5 mb 0.00 in0.0 mm 0.00 in0.0 mm 0.00 in0.0 mm
08:00 AM 60.9°F16.1°C 51.0°F10.6°C 70% 3.7 mph N6.0 kmh N 5.7 mph9.2 kmh 29.90 in1012.5 mb 0.00 in0.0 mm 0.00 in0.0 mm 0.00 in0.0 mm
08:05 AM 61.3°F16.3°C 51.4°F10.8°C 70% 4.1 mph NW6.6 kmh NW 5.7 mph9.2 kmh 29.90 in1012.5 mb 0.00 in0.0 mm 0.00 in0.0 mm 0.00 in0.0 mm
08:10 AM 61.6°F16.4°C 51.3°F10.7°C 69% 5.1 mph NW8.2 kmh NW 8.0 mph12.9 kmh 29.90 in1012.5 mb 0.00 in0.0 mm 0.00 in0.0 mm 0.00 in0.0 mm
08:15 AM 62.2°F16.8°C 51.5°F10.8°C 68% 6.1 mph NNW9.8 kmh NNW 8.0 mph12.9 kmh 29.90 in1012.5 mb 0.00 in0.0 mm 0.00 in0.0 mm 0.00 in0.0 mm
08:20 AM 62.5°F16.9°C 51.4°F10.8°C 67% 5.6 mph N9.0 kmh N 7.7 mph12.4 kmh 29.90 in1012.5 mb 0.00 in0.0 mm 0.00 in0.0 mm 0.00 in0.0 mm
08:25 AM 62.9°F17.2°C 51.3°F10.7°C 66% 4.8 mph NNW7.7 kmh NNW 7.7 mph12.4 kmh 29.90 in1012.5 mb 0.00 in0.0 mm 0.00 in0.0 mm 0.00 in0.0 mm
08:30 AM 62.9°F17.2°C 51.3°F10.7°C 66% 4.0 mph N6.4 kmh N 6.5 mph10.5 kmh 29.90 in1012.5 mb 0.00 in0.0 mm 0.00 in0.0 mm 0.00 in0.0 mm
08:35 AM 62.9°F17.2°C 50.9°F10.5°C 65% 5.0 mph N8.0 kmh N 7.4 mph11.9 kmh 29.90 in1012.5 mb 0.00 in0.0 mm 0.00 in0.0 mm 0.00 in0.0 mm
08:40 AM 62.7°F17.1°C 50.8°F10.4°C 65% 4.9 mph NNW7.9 kmh NNW 7.4 mph11.9 kmh 29.90 in1012.5 mb 0.00 in0.0 mm 0.00 in0.0 mm 0.00 in0.0 mm
08:45 AM 62.7°F17.1°C 50.3°F10.2°C 64% 4.9 mph N7.9 kmh N 7.4 mph11.9 kmh 29.90 in1012.5 mb 0.00 in0.0 mm 0.00 in0.0 mm 0.00 in0.0 mm
08:50 AM 62.7°F17.1°C 50.3°F10.2°C 64% 4.4 mph NNW7.1 kmh NNW 7.4 mph11.9 kmh 29.90 in1012.5 mb 0.00 in0.0 mm 0.00 in0.0 mm 0.00 in0.0 mm
08:55 AM 62.9°F17.2°C 50.1°F10.1°C 63% 4.5 mph NW7.2 kmh NW 7.7 mph12.4 kmh 29.90 in1012.5 mb 0.00 in0.0 mm 0.00 in0.0 mm 0.00 in0.0 mm
09:00 AM 63.0°F17.2°C 50.2°F10.1°C 63% 3.8 mph NW6.1 kmh NW 7.7 mph12.4 kmh 29.90 in1012.5 mb 0.00 in0.0 mm 0.00 in0.0 mm 0.00 in0.0 mm
09:05 AM 63.6°F17.6°C 50.3°F10.2°C 62% 2.9 mph NNW4.7 kmh NNW 4.5 mph7.2 kmh 29.90 in1012.5 mb 0.00 in0.0 mm 0.00 in0.0 mm 0.00 in0.0 mm
09:10 AM 64.3°F17.9°C 51.0°F10.6°C 62% 3.6 mph NNW5.8 kmh NNW 6.5 mph10.5 kmh 29.90 in1012.5 mb 0.00 in0.0 mm 0.00 in0.0 mm 0.00 in0.0 mm
09:15 AM 65.8°F18.8°C 51.9°F11.1°C 61% 4.4 mph NW7.1 kmh NW 6.5 mph10.5 kmh 29.90 in1012.5 mb 0.00 in0.0 mm 0.00 in0.0 mm 0.00 in0.0 mm
09:20 AM 67.9°F19.9°C 53.0°F11.7°C 59% 3.8 mph NNW6.1 kmh NNW 5.7 mph9.2 kmh 29.93 in1013.5 mb 0.00 in0.0 mm 0.00 in0.0 mm 0.00 in0.0 mm
09:25 AM 69.2°F20.7°C 52.8°F11.6°C 56% 3.4 mph N5.5 kmh N 5.7 mph9.2 kmh 29.93 in1013.5 mb 0.00 in0.0 mm 0.00 in0.0 mm 0.00 in0.0 mm
09:30 AM 70.4°F21.3°C 53.5°F11.9°C 55% 4.1 mph N6.6 kmh N 7.4 mph11.9 kmh 29.93 in1013.5 mb 0.00 in0.0 mm 0.00 in0.0 mm 0.00 in0.0 mm
09:35 AM 70.8°F21.6°C 52.8°F11.6°C 53% 4.3 mph NW6.9 kmh NW 7.4 mph11.9 kmh 29.93 in1013.5 mb 0.00 in0.0 mm 0.00 in0.0 mm 0.00 in0.0 mm
09:40 AM 70.6°F21.4°C 52.1°F11.2°C 52% 3.7 mph NW6.0 kmh NW 5.7 mph9.2 kmh 29.93 in1013.5 mb 0.00 in0.0 mm 0.00 in0.0 mm 0.00 in0.0 mm
09:45 AM 70.3°F21.3°C 51.3°F10.7°C 51% 3.3 mph NW5.3 kmh NW 7.7 mph12.4 kmh 29.93 in1013.5 mb 0.00 in0.0 mm 0.00 in0.0 mm 0.00 in0.0 mm
09:50 AM 70.1°F21.2°C 51.1°F10.6°C 51% 3.7 mph NW6.0 kmh NW 7.7 mph12.4 kmh 29.93 in1013.5 mb 0.00 in0.0 mm 0.00 in0.0 mm 0.00 in0.0 mm
09:55 AM 69.5°F20.8°C 50.1°F10.1°C 50% 4.4 mph NW7.1 kmh NW 5.7 mph9.2 kmh 29.93 in1013.5 mb 0.00 in0.0 mm 0.00 in0.0 mm 0.00 in0.0 mm
10:00 AM 68.8°F20.4°C 49.4°F9.7°C 50% 5.6 mph NNW9.0 kmh NNW 8.0 mph12.9 kmh 29.93 in1013.5 mb 0.00 in0.0 mm 0.00 in0.0 mm 0.00 in0.0 mm
10:05 AM 68.3°F20.2°C 48.9°F9.4°C 50% 4.7 mph NW7.6 kmh NW 8.0 mph12.9 kmh 29.93 in1013.5 mb 0.00 in0.0 mm 0.00 in0.0 mm 0.00 in0.0 mm
10:10 AM 68.1°F20.1°C 48.7°F9.3°C 50% 4.4 mph NW7.1 kmh NW 7.7 mph12.4 kmh 29.93 in1013.5 mb 0.00 in0.0 mm 0.00 in0.0 mm 0.00 in0.0 mm
10:15 AM 67.9°F19.9°C 48.6°F9.2°C 50% 4.1 mph NW6.6 kmh NW 7.7 mph12.4 kmh 29.93 in1013.5 mb 0.00 in0.0 mm 0.00 in0.0 mm 0.00 in0.0 mm
10:20 AM 68.1°F20.1°C 49.3°F9.6°C 51% 4.0 mph NW6.4 kmh NW 5.7 mph9.2 kmh 29.93 in1013.5 mb 0.00 in0.0 mm 0.00 in0.0 mm 0.00 in0.0 mm
10:25 AM 68.3°F20.2°C 48.9°F9.4°C 50% 3.9 mph NW6.3 kmh NW 5.7 mph9.2 kmh 29.93 in1013.5 mb 0.00 in0.0 mm 0.00 in0.0 mm 0.00 in0.0 mm
10:30 AM 68.3°F20.2°C 48.9°F9.4°C 50% 4.0 mph NW6.4 kmh NW 6.5 mph10.5 kmh 29.93 in1013.5 mb 0.00 in0.0 mm 0.00 in0.0 mm 0.00 in0.0 mm
10:35 AM 68.3°F20.2°C 48.4°F9.1°C 49% 5.2 mph WNW8.4 kmh WNW 7.7 mph12.4 kmh 29.93 in1013.5 mb 0.00 in0.0 mm 0.00 in0.0 mm 0.00 in0.0 mm
10:40 AM 68.4°F20.2°C 48.5°F9.2°C 49% 4.5 mph WNW7.2 kmh WNW 7.7 mph12.4 kmh 29.93 in1013.5 mb 0.00 in0.0 mm 0.00 in0.0 mm 0.00 in0.0 mm
10:45 AM 68.6°F20.3°C 48.1°F8.9°C 48% 2.7 mph NW4.3 kmh NW 5.7 mph9.2 kmh 29.93 in1013.5 mb 0.00 in0.0 mm 0.00 in0.0 mm 0.00 in0.0 mm
10:50 AM 68.6°F20.3°C 48.1°F8.9°C 48% 3.0 mph WNW4.8 kmh WNW 6.5 mph10.5 kmh 29.93 in1013.5 mb 0.00 in0.0 mm 0.00 in0.0 mm 0.00 in0.0 mm
10:55 AM 68.6°F20.3°C 48.1°F8.9°C 48% 3.8 mph NW6.1 kmh NW 6.5 mph10.5 kmh 29.93 in1013.5 mb 0.00 in0.0 mm 0.00 in0.0 mm 0.00 in0.0 mm
11:00 AM 68.8°F20.4°C 47.8°F8.8°C 47% 3.1 mph NW5.0 kmh NW 6.5 mph10.5 kmh 29.93 in1013.5 mb 0.00 in0.0 mm 0.00 in0.0 mm 0.00 in0.0 mm
11:05 AM 68.8°F20.4°C 47.8°F8.8°C 47% 2.6 mph WNW4.2 kmh WNW 4.2 mph6.8 kmh 29.93 in1013.5 mb 0.00 in0.0 mm 0.00 in0.0 mm 0.00 in0.0 mm
11:10 AM 69.0°F20.6°C 47.9°F8.8°C 47% 3.6 mph WSW5.8 kmh WSW 7.1 mph11.4 kmh 29.93 in1013.5 mb 0.00 in0.0 mm 0.00 in0.0 mm 0.00 in0.0 mm
11:15 AM 69.0°F20.6°C 47.9°F8.8°C 47% 4.6 mph WSW7.4 kmh WSW 8.0 mph12.9 kmh 29.93 in1013.5 mb 0.00 in0.0 mm 0.00 in0.0 mm 0.00 in0.0 mm
11:20 AM 69.2°F20.7°C 47.5°F8.6°C 46% 5.0 mph W8.0 kmh W 8.0 mph12.9 kmh 29.93 in1013.5 mb 0.00 in0.0 mm 0.00 in0.0 mm 0.00 in0.0 mm
11:25 AM 69.0°F20.6°C 47.3°F8.5°C 46% 6.3 mph W10.1 kmh W 8.6 mph13.8 kmh 29.93 in1013.5 mb 0.00 in0.0 mm 0.00 in0.0 mm 0.00 in0.0 mm
11:30 AM 69.0°F20.6°C 47.9°F8.8°C 47% 5.7 mph W9.2 kmh W 8.6 mph13.8 kmh 29.93 in1013.5 mb 0.00 in0.0 mm 0.00 in0.0 mm 0.00 in0.0 mm
11:35 AM 68.8°F20.4°C 47.2°F8.4°C 46% 5.0 mph WSW8.0 kmh WSW 8.6 mph13.8 kmh 29.93 in1013.5 mb 0.00 in0.0 mm 0.00 in0.0 mm 0.00 in0.0 mm
11:40 AM 68.8°F20.4°C 47.8°F8.8°C 47% 5.7 mph WSW9.2 kmh WSW 10.7 mph17.2 kmh 29.93 in1013.5 mb 0.00 in0.0 mm 0.00 in0.0 mm 0.00 in0.0 mm
11:45 AM 69.0°F20.6°C 48.5°F9.2°C 48% 6.5 mph W10.5 kmh W 10.7 mph17.2 kmh 29.93 in1013.5 mb 0.00 in0.0 mm 0.00 in0.0 mm 0.00 in0.0 mm
11:50 AM 68.8°F20.4°C 48.3°F9.1°C 48% 6.6 mph W10.6 kmh W 10.7 mph17.2 kmh 29.93 in1013.5 mb 0.00 in0.0 mm 0.00 in0.0 mm 0.00 in0.0 mm
11:55 AM 68.4°F20.2°C 48.5°F9.2°C 49% 7.1 mph W11.4 kmh W 14.0 mph22.5 kmh 29.93 in1013.5 mb 0.00 in0.0 mm 0.00 in0.0 mm 0.00 in0.0 mm
12:00 PM 68.4°F20.2°C 48.5°F9.2°C 49% 7.0 mph WSW11.3 kmh WSW 14.0 mph22.5 kmh 29.93 in1013.5 mb 0.00 in0.0 mm 0.00 in0.0 mm 0.00 in0.0 mm
12:05 PM 68.3°F20.2°C 48.4°F9.1°C 49% 7.8 mph W12.6 kmh W 10.7 mph17.2 kmh 29.93 in1013.5 mb 0.00 in0.0 mm 0.00 in0.0 mm 0.00 in0.0 mm
12:10 PM 68.1°F20.1°C 48.2°F9.0°C 49% 10.2 mph W16.4 kmh W 14.3 mph23.0 kmh 29.93 in1013.5 mb 0.00 in0.0 mm 0.00 in0.0 mm 0.00 in0.0 mm
12:15 PM 68.1°F20.1°C 48.2°F9.0°C 49% 10.6 mph W17.1 kmh W 14.3 mph23.0 kmh 29.93 in1013.5 mb 0.00 in0.0 mm 0.00 in0.0 mm 0.00 in0.0 mm
12:20 PM 68.1°F20.1°C 48.2°F9.0°C 49% 9.1 mph W14.6 kmh W 11.6 mph18.7 kmh 29.93 in1013.5 mb 0.00 in0.0 mm 0.00 in0.0 mm 0.00 in0.0 mm
12:25 PM 67.7°F19.8°C 47.9°F8.8°C 49% 8.9 mph W14.3 kmh W 14.6 mph23.5 kmh 29.93 in1013.5 mb 0.00 in0.0 mm 0.00 in0.0 mm 0.00 in0.0 mm
12:30 PM 67.9°F19.9°C 48.0°F8.9°C 49% 11.3 mph W18.2 kmh W 15.2 mph24.5 kmh 29.93 in1013.5 mb 0.00 in0.0 mm 0.00 in0.0 mm 0.00 in0.0 mm
12:35 PM 67.9°F19.9°C 48.0°F8.9°C 49% 12.8 mph W20.6 kmh W 15.2 mph24.5 kmh 29.93 in1013.5 mb 0.00 in0.0 mm 0.00 in0.0 mm 0.00 in0.0 mm
12:40 PM 66.8°F19.3°C 47.0°F8.3°C 49% 12.9 mph W20.8 kmh W 16.4 mph26.4 kmh 29.93 in1013.5 mb 0.00 in0.0 mm 0.00 in0.0 mm 0.00 in0.0 mm
12:45 PM 66.5°F19.2°C 46.7°F8.2°C 49% 12.9 mph W20.8 kmh W 17.6 mph28.3 kmh 29.93 in1013.5 mb 0.00 in0.0 mm 0.00 in0.0 mm 0.00 in0.0 mm
12:50 PM 66.8°F19.3°C 47.0°F8.3°C 49% 10.9 mph W17.5 kmh W 17.6 mph28.3 kmh 29.93 in1013.5 mb 0.00 in0.0 mm 0.00 in0.0 mm 0.00 in0.0 mm
12:55 PM 67.4°F19.7°C 47.5°F8.6°C 49% 10.3 mph W16.6 kmh W 13.1 mph21.1 kmh 29.93 in1013.5 mb 0.00 in0.0 mm 0.00 in0.0 mm 0.00 in0.0 mm
01:00 PM 67.6°F19.8°C 47.7°F8.7°C 49% 12.5 mph W20.1 kmh W 17.0 mph27.4 kmh 29.93 in1013.5 mb 0.00 in0.0 mm 0.00 in0.0 mm 0.00 in0.0 mm
01:05 PM 68.1°F20.1°C 48.2°F9.0°C 49% 13.3 mph W21.4 kmh W 17.0 mph27.4 kmh 29.93 in1013.5 mb 0.00 in0.0 mm 0.00 in0.0 mm 0.00 in0.0 mm
01:10 PM 68.6°F20.3°C 48.7°F9.3°C 49% 11.0 mph W17.7 kmh W 16.7 mph26.9 kmh 29.93 in1013.5 mb 0.00 in0.0 mm 0.00 in0.0 mm 0.00 in0.0 mm
01:15 PM 69.0°F20.6°C 48.5°F9.2°C 48% 10.6 mph W17.1 kmh W 13.7 mph22.0 kmh 29.93 in1013.5 mb 0.00 in0.0 mm 0.00 in0.0 mm 0.00 in0.0 mm
01:20 PM 69.2°F20.7°C 48.6°F9.2°C 48% 13.4 mph W21.6 kmh W 19.0 mph30.6 kmh 29.93 in1013.5 mb 0.00 in0.0 mm 0.00 in0.0 mm 0.00 in0.0 mm
01:25 PM 69.5°F20.8°C 49.0°F9.4°C 48% 12.8 mph WNW20.6 kmh WNW 19.0 mph30.6 kmh 29.93 in1013.5 mb 0.00 in0.0 mm 0.00 in0.0 mm 0.00 in0.0 mm
01:30 PM 69.2°F20.7°C 48.1°F8.9°C 47% 10.1 mph WNW16.3 kmh WNW 14.0 mph22.5 kmh 29.93 in1013.5 mb 0.00 in0.0 mm 0.00 in0.0 mm 0.00 in0.0 mm
01:35 PM 68.8°F20.4°C 47.8°F8.8°C 47% 10.9 mph WNW17.5 kmh WNW 13.7 mph22.0 kmh 29.93 in1013.5 mb 0.00 in0.0 mm 0.00 in0.0 mm 0.00 in0.0 mm
01:40 PM 67.9°F19.9°C 46.9°F8.3°C 47% 12.6 mph W20.3 kmh W 22.3 mph35.9 kmh 29.93 in1013.5 mb 0.00 in0.0 mm 0.00 in0.0 mm 0.00 in0.0 mm
01:45 PM 67.9°F19.9°C 46.9°F8.3°C 47% 12.2 mph W19.6 kmh W 22.3 mph35.9 kmh 29.93 in1013.5 mb 0.00 in0.0 mm 0.00 in0.0 mm 0.00 in0.0 mm
01:50 PM 67.9°F19.9°C 46.9°F8.3°C 47% 13.2 mph W21.2 kmh W 19.6 mph31.5 kmh 29.93 in1013.5 mb 0.00 in0.0 mm 0.00 in0.0 mm 0.00 in0.0 mm
01:55 PM 68.3°F20.2°C 47.3°F8.5°C 47% 14.5 mph W23.3 kmh W 19.6 mph31.5 kmh 29.93 in1013.5 mb 0.00 in0.0 mm 0.00 in0.0 mm 0.00 in0.0 mm
02:00 PM 67.7°F19.8°C 46.8°F8.2°C 47% 13.6 mph W21.9 kmh W 19.3 mph31.1 kmh 29.93 in1013.5 mb 0.00 in0.0 mm 0.00 in0.0 mm 0.00 in0.0 mm
02:05 PM 67.6°F19.8°C 46.0°F7.8°C 46% 13.8 mph W22.2 kmh W 19.3 mph31.1 kmh 29.93 in1013.5 mb 0.00 in0.0 mm 0.00 in0.0 mm 0.00 in0.0 mm
02:10 PM 67.4°F19.7°C 46.4°F8.0°C 47% 14.1 mph W22.7 kmh W 20.5 mph33.0 kmh 29.93 in1013.5 mb 0.00 in0.0 mm 0.00 in0.0 mm 0.00 in0.0 mm
02:15 PM 67.6°F19.8°C 46.6°F8.1°C 47% 14.5 mph W23.3 kmh W 25.9 mph41.7 kmh 29.93 in1013.5 mb 0.00 in0.0 mm 0.00 in0.0 mm 0.00 in0.0 mm
02:20 PM 67.4°F19.7°C 46.4°F8.0°C 47% 15.0 mph W24.1 kmh W 26.2 mph42.2 kmh 29.93 in1013.5 mb 0.00 in0.0 mm 0.00 in0.0 mm 0.00 in0.0 mm
02:25 PM 67.6°F19.8°C 46.6°F8.1°C 47% 14.5 mph W23.3 kmh W 26.2 mph42.2 kmh 29.93 in1013.5 mb 0.00 in0.0 mm 0.00 in0.0 mm 0.00 in0.0 mm
02:30 PM 67.6°F19.8°C 46.0°F7.8°C 46% 13.4 mph WNW21.6 kmh WNW 20.5 mph33.0 kmh 29.93 in1013.5 mb 0.00 in0.0 mm 0.00 in0.0 mm 0.00 in0.0 mm
02:35 PM 67.7°F19.8°C 46.2°F7.9°C 46% 14.3 mph NW23.0 kmh NW 20.5 mph33.0 kmh 29.93 in1013.5 mb 0.00 in0.0 mm 0.00 in0.0 mm 0.00 in0.0 mm
02:40 PM 67.9°F19.9°C 46.4°F8.0°C 46% 12.8 mph WNW20.6 kmh WNW 17.6 mph28.3 kmh 29.93 in1013.5 mb 0.00 in0.0 mm 0.00 in0.0 mm 0.00 in0.0 mm
02:45 PM 67.9°F19.9°C 46.4°F8.0°C 46% 13.6 mph WNW21.9 kmh WNW 23.2 mph37.3 kmh 29.93 in1013.5 mb 0.00 in0.0 mm 0.00 in0.0 mm 0.00 in0.0 mm
02:50 PM 68.1°F20.1°C 46.5°F8.1°C 46% 14.0 mph NW22.5 kmh NW 23.2 mph37.3 kmh 29.93 in1013.5 mb 0.00 in0.0 mm 0.00 in0.0 mm 0.00 in0.0 mm
02:55 PM 68.3°F20.2°C 46.7°F8.2°C 46% 12.0 mph WNW19.3 kmh WNW 17.3 mph27.8 kmh 29.93 in1013.5 mb 0.00 in0.0 mm 0.00 in0.0 mm 0.00 in0.0 mm
03:00 PM 68.1°F20.1°C 46.5°F8.1°C 46% 13.7 mph W22.0 kmh W 22.9 mph36.9 kmh 29.93 in1013.5 mb 0.00 in0.0 mm 0.00 in0.0 mm 0.00 in0.0 mm
03:05 PM 68.1°F20.1°C 46.5°F8.1°C 46% 15.1 mph W24.3 kmh W 22.9 mph36.9 kmh 29.93 in1013.5 mb 0.00 in0.0 mm 0.00 in0.0 mm 0.00 in0.0 mm
03:10 PM 68.3°F20.2°C 46.7°F8.2°C 46% 12.8 mph W20.6 kmh W 17.9 mph28.8 kmh 29.93 in1013.5 mb 0.00 in0.0 mm 0.00 in0.0 mm 0.00 in0.0 mm
03:15 PM 68.1°F20.1°C 45.9°F7.7°C 45% 13.3 mph W21.4 kmh W 23.2 mph37.3 kmh 29.93 in1013.5 mb 0.00 in0.0 mm 0.00 in0.0 mm 0.00 in0.0 mm
03:20 PM 67.9°F19.9°C 46.4°F8.0°C 46% 15.3 mph W24.6 kmh W 23.2 mph37.3 kmh 29.93 in1013.5 mb 0.00 in0.0 mm 0.00 in0.0 mm 0.00 in0.0 mm
03:25 PM 68.1°F20.1°C 45.9°F7.7°C 45% 13.7 mph W22.0 kmh W 17.3 mph27.8 kmh 29.93 in1013.5 mb 0.00 in0.0 mm 0.00 in0.0 mm 0.00 in0.0 mm
03:30 PM 68.1°F20.1°C 46.5°F8.1°C 46% 12.9 mph W20.8 kmh W 19.0 mph30.6 kmh 29.93 in1013.5 mb 0.00 in0.0 mm 0.00 in0.0 mm 0.00 in0.0 mm
03:35 PM 67.9°F19.9°C 46.4°F8.0°C 46% 12.7 mph W20.4 kmh W 19.0 mph30.6 kmh 29.93 in1013.5 mb 0.00 in0.0 mm 0.00 in0.0 mm 0.00 in0.0 mm
03:40 PM 67.7°F19.8°C 45.6°F7.6°C 45% 10.5 mph W16.9 kmh W 16.1 mph25.9 kmh 29.93 in1013.5 mb 0.00 in0.0 mm 0.00 in0.0 mm 0.00 in0.0 mm
03:45 PM 67.7°F19.8°C 45.6°F7.6°C 45% 10.7 mph WNW17.2 kmh WNW 16.1 mph25.9 kmh 29.93 in1013.5 mb 0.00 in0.0 mm 0.00 in0.0 mm 0.00 in0.0 mm
03:50 PM 67.7°F19.8°C 46.2°F7.9°C 46% 12.6 mph WNW20.3 kmh WNW 16.7 mph26.9 kmh 29.93 in1013.5 mb 0.00 in0.0 mm 0.00 in0.0 mm 0.00 in0.0 mm
03:55 PM 67.7°F19.8°C 46.2°F7.9°C 46% 11.6 mph W18.7 kmh W 16.7 mph26.9 kmh 29.93 in1013.5 mb 0.00 in0.0 mm 0.00 in0.0 mm 0.00 in0.0 mm
04:00 PM 67.7°F19.8°C 46.2°F7.9°C 46% 11.5 mph W18.5 kmh W 17.9 mph28.8 kmh 29.93 in1013.5 mb 0.00 in0.0 mm 0.00 in0.0 mm 0.00 in0.0 mm
04:05 PM 67.7°F19.8°C 46.2°F7.9°C 46% 13.8 mph W22.2 kmh W 23.5 mph37.8 kmh 29.93 in1013.5 mb 0.00 in0.0 mm 0.00 in0.0 mm 0.00 in0.0 mm
04:10 PM 67.6°F19.8°C 46.0°F7.8°C 46% 14.5 mph W23.3 kmh W 23.5 mph37.8 kmh 29.93 in1013.5 mb 0.00 in0.0 mm 0.00 in0.0 mm 0.00 in0.0 mm
04:15 PM 67.7°F19.8°C 46.2°F7.9°C 46% 13.7 mph W22.0 kmh W 18.1 mph29.1 kmh 29.93 in1013.5 mb 0.00 in0.0 mm 0.00 in0.0 mm 0.00 in0.0 mm
04:20 PM 67.6°F19.8°C 45.4°F7.4°C 45% 13.1 mph W21.1 kmh W 18.1 mph29.1 kmh 29.96 in1014.6 mb 0.00 in0.0 mm 0.00 in0.0 mm 0.00 in0.0 mm
04:25 PM 67.4°F19.7°C 45.3°F7.4°C 45% 11.8 mph W19.0 kmh W 17.0 mph27.4 kmh 29.96 in1014.6 mb 0.00 in0.0 mm 0.00 in0.0 mm 0.00 in0.0 mm
04:30 PM 67.2°F19.6°C 45.1°F7.3°C 45% 13.9 mph W22.4 kmh W 19.6 mph31.5 kmh 29.96 in1014.6 mb 0.00 in0.0 mm 0.00 in0.0 mm 0.00 in0.0 mm
04:35 PM 67.0°F19.4°C 45.0°F7.2°C 45% 14.8 mph W23.8 kmh W 19.6 mph31.5 kmh 29.93 in1013.5 mb 0.00 in0.0 mm 0.00 in0.0 mm 0.00 in0.0 mm
04:40 PM 66.7°F19.3°C 45.2°F7.3°C 46% 14.7 mph W23.7 kmh W 19.0 mph30.6 kmh 29.93 in1013.5 mb 0.00 in0.0 mm 0.00 in0.0 mm 0.00 in0.0 mm
04:45 PM 66.5°F19.2°C 45.0°F7.2°C 46% 14.3 mph W23.0 kmh W 17.9 mph28.8 kmh 29.93 in1013.5 mb 0.00 in0.0 mm 0.00 in0.0 mm 0.00 in0.0 mm
04:50 PM 66.5°F19.2°C 45.6°F7.6°C 47% 12.3 mph W19.8 kmh W 17.3 mph27.8 kmh 29.96 in1014.6 mb 0.00 in0.0 mm 0.00 in0.0 mm 0.00 in0.0 mm
04:55 PM 66.5°F19.2°C 45.0°F7.2°C 46% 10.5 mph W16.9 kmh W 14.6 mph23.5 kmh 29.96 in1014.6 mb 0.00 in0.0 mm 0.00 in0.0 mm 0.00 in0.0 mm
05:00 PM 66.7°F19.3°C 45.2°F7.3°C 46% 10.8 mph W17.4 kmh W 17.3 mph27.8 kmh 29.96 in1014.6 mb 0.00 in0.0 mm 0.00 in0.0 mm 0.00 in0.0 mm
05:05 PM 66.7°F19.3°C 45.2°F7.3°C 46% 13.3 mph W21.4 kmh W 22.0 mph35.4 kmh 29.96 in1014.6 mb 0.00 in0.0 mm 0.00 in0.0 mm 0.00 in0.0 mm
05:10 PM 66.8°F19.3°C 45.4°F7.4°C 46% 14.1 mph W22.7 kmh W 22.0 mph35.4 kmh 29.96 in1014.6 mb 0.00 in0.0 mm 0.00 in0.0 mm 0.00 in0.0 mm
05:15 PM 66.8°F19.3°C 45.4°F7.4°C 46% 12.5 mph W20.1 kmh W 20.8 mph33.5 kmh 29.96 in1014.6 mb 0.00 in0.0 mm 0.00 in0.0 mm 0.00 in0.0 mm
05:20 PM 66.8°F19.3°C 45.4°F7.4°C 46% 13.1 mph W21.1 kmh W 16.7 mph26.9 kmh 29.96 in1014.6 mb 0.00 in0.0 mm 0.00 in0.0 mm 0.00 in0.0 mm
05:25 PM 66.8°F19.3°C 45.4°F7.4°C 46% 13.6 mph W21.9 kmh W 16.7 mph26.9 kmh 29.96 in1014.6 mb 0.00 in0.0 mm 0.00 in0.0 mm 0.00 in0.0 mm
05:30 PM 66.7°F19.3°C 45.2°F7.3°C 46% 13.7 mph WNW22.0 kmh WNW 17.6 mph28.3 kmh 29.96 in1014.6 mb 0.00 in0.0 mm 0.00 in0.0 mm 0.00 in0.0 mm
05:35 PM 66.5°F19.2°C 45.0°F7.2°C 46% 13.8 mph WNW22.2 kmh WNW 20.2 mph32.5 kmh 29.96 in1014.6 mb 0.00 in0.0 mm 0.00 in0.0 mm 0.00 in0.0 mm
05:40 PM 66.1°F18.9°C 44.7°F7.1°C 46% 13.4 mph WNW21.6 kmh WNW 20.2 mph32.5 kmh 29.96 in1014.6 mb 0.00 in0.0 mm 0.00 in0.0 mm 0.00 in0.0 mm
05:45 PM 65.9°F18.8°C 44.6°F7.0°C 46% 12.3 mph W19.8 kmh W 20.2 mph32.5 kmh 29.96 in1014.6 mb 0.00 in0.0 mm 0.00 in0.0 mm 0.00 in0.0 mm
05:50 PM 65.9°F18.8°C 44.6°F7.0°C 46% 13.1 mph WNW21.1 kmh WNW 20.2 mph32.5 kmh 29.96 in1014.6 mb 0.00 in0.0 mm 0.00 in0.0 mm 0.00 in0.0 mm
05:55 PM 65.8°F18.8°C 44.4°F6.9°C 46% 13.5 mph WNW21.7 kmh WNW 20.2 mph32.5 kmh 29.96 in1014.6 mb 0.00 in0.0 mm 0.00 in0.0 mm 0.00 in0.0 mm
06:00 PM 65.8°F18.8°C 44.4°F6.9°C 46% 12.2 mph NW19.6 kmh NW 18.7 mph30.1 kmh 29.96 in1014.6 mb 0.00 in0.0 mm 0.00 in0.0 mm 0.00 in0.0 mm
06:05 PM 65.6°F18.7°C 44.2°F6.8°C 46% 12.0 mph WNW19.3 kmh WNW 18.7 mph30.1 kmh 29.96 in1014.6 mb 0.00 in0.0 mm 0.00 in0.0 mm 0.00 in0.0 mm
06:10 PM 65.4°F18.6°C 44.1°F6.7°C 46% 12.1 mph WNW19.5 kmh WNW 17.0 mph27.4 kmh 29.96 in1014.6 mb 0.00 in0.0 mm 0.00 in0.0 mm 0.00 in0.0 mm
06:15 PM 65.2°F18.4°C 43.9°F6.6°C 46% 11.3 mph WNW18.2 kmh WNW 17.0 mph27.4 kmh 29.96 in1014.6 mb 0.00 in0.0 mm 0.00 in0.0 mm 0.00 in0.0 mm
06:20 PM 65.2°F18.4°C 43.9°F6.6°C 46% 9.0 mph WNW14.5 kmh WNW 13.7 mph22.0 kmh 29.96 in1014.6 mb 0.00 in0.0 mm 0.00 in0.0 mm 0.00 in0.0 mm
06:25 PM 65.0°F18.3°C 43.7°F6.5°C 46% 8.0 mph W12.9 kmh W 12.5 mph20.1 kmh 29.96 in1014.6 mb 0.00 in0.0 mm 0.00 in0.0 mm 0.00 in0.0 mm
06:30 PM 64.5°F18.1°C 43.8°F6.6°C 47% 11.8 mph W19.0 kmh W 19.6 mph31.5 kmh 29.96 in1014.6 mb 0.00 in0.0 mm 0.00 in0.0 mm 0.00 in0.0 mm
06:35 PM 64.1°F17.8°C 43.5°F6.4°C 47% 13.4 mph WNW21.6 kmh WNW 19.6 mph31.5 kmh 29.96 in1014.6 mb 0.00 in0.0 mm 0.00 in0.0 mm 0.00 in0.0 mm
06:40 PM 64.0°F17.8°C 43.3°F6.3°C 47% 11.5 mph WNW18.5 kmh WNW 14.3 mph23.0 kmh 29.96 in1014.6 mb 0.00 in0.0 mm 0.00 in0.0 mm 0.00 in0.0 mm
06:45 PM 63.4°F17.4°C 42.8°F6.0°C 47% 11.3 mph W18.2 kmh W 15.2 mph24.5 kmh 29.96 in1014.6 mb 0.00 in0.0 mm 0.00 in0.0 mm 0.00 in0.0 mm
06:50 PM 63.0°F17.2°C 43.0°F6.1°C 48% 10.0 mph W16.1 kmh W 15.2 mph24.5 kmh 29.96 in1014.6 mb 0.00 in0.0 mm 0.00 in0.0 mm 0.00 in0.0 mm
06:55 PM 62.7°F17.1°C 43.2°F6.2°C 49% 9.5 mph W15.3 kmh W 13.4 mph21.6 kmh 29.96 in1014.6 mb 0.00 in0.0 mm 0.00 in0.0 mm 0.00 in0.0 mm
07:00 PM 62.3°F16.8°C 42.9°F6.1°C 49% 8.7 mph W14.0 kmh W 11.3 mph18.2 kmh 29.96 in1014.6 mb 0.00 in0.0 mm 0.00 in0.0 mm 0.00 in0.0 mm
07:05 PM 62.0°F16.7°C 42.6°F5.9°C 49% 8.7 mph WNW14.0 kmh WNW 12.8 mph20.6 kmh 29.96 in1014.6 mb 0.00 in0.0 mm 0.00 in0.0 mm 0.00 in0.0 mm
07:10 PM 62.0°F16.7°C 42.6°F5.9°C 49% 9.1 mph WNW14.6 kmh WNW 12.8 mph20.6 kmh 29.96 in1014.6 mb 0.00 in0.0 mm 0.00 in0.0 mm 0.00 in0.0 mm
07:15 PM 61.6°F16.4°C 42.8°F6.0°C 50% 10.2 mph W16.4 kmh W 19.0 mph30.6 kmh 29.96 in1014.6 mb 0.00 in0.0 mm 0.00 in0.0 mm 0.00 in0.0 mm
07:20 PM 61.4°F16.3°C 42.6°F5.9°C 50% 10.5 mph WNW16.9 kmh WNW 19.0 mph30.6 kmh 29.96 in1014.6 mb 0.00 in0.0 mm 0.00 in0.0 mm 0.00 in0.0 mm
07:25 PM 61.1°F16.2°C 42.3°F5.7°C 50% 9.9 mph WNW15.9 kmh WNW 14.6 mph23.5 kmh 29.96 in1014.6 mb 0.00 in0.0 mm 0.00 in0.0 mm 0.00 in0.0 mm
07:30 PM 60.9°F16.1°C 42.6°F5.9°C 51% 8.3 mph WNW13.4 kmh WNW 11.3 mph18.2 kmh 29.96 in1014.6 mb 0.00 in0.0 mm 0.00 in0.0 mm 0.00 in0.0 mm
07:35 PM 60.9°F16.1°C 43.1°F6.2°C 52% 7.6 mph W12.2 kmh W 11.3 mph18.2 kmh 29.96 in1014.6 mb 0.00 in0.0 mm 0.00 in0.0 mm 0.00 in0.0 mm
07:40 PM 60.7°F15.9°C 43.0°F6.1°C 52% 8.0 mph W12.9 kmh W 13.4 mph21.6 kmh 29.96 in1014.6 mb 0.00 in0.0 mm 0.00 in0.0 mm 0.00 in0.0 mm
07:45 PM 60.7°F15.9°C 43.0°F6.1°C 52% 8.5 mph WSW13.7 kmh WSW 13.4 mph21.6 kmh 29.96 in1014.6 mb 0.00 in0.0 mm 0.00 in0.0 mm 0.00 in0.0 mm
07:50 PM 60.7°F15.9°C 43.5°F6.4°C 53% 9.4 mph W15.1 kmh W 13.4 mph21.6 kmh 29.96 in1014.6 mb 0.00 in0.0 mm 0.00 in0.0 mm 0.00 in0.0 mm
07:55 PM 60.5°F15.8°C 43.3°F6.3°C 53% 8.6 mph W13.8 kmh W 13.4 mph21.6 kmh 29.96 in1014.6 mb 0.00 in0.0 mm 0.00 in0.0 mm 0.00 in0.0 mm
08:00 PM 60.5°F15.8°C 43.8°F6.6°C 54% 9.5 mph W15.3 kmh W 16.4 mph26.4 kmh 29.96 in1014.6 mb 0.00 in0.0 mm 0.00 in0.0 mm 0.00 in0.0 mm
08:05 PM 60.5°F15.8°C 44.3°F6.8°C 55% 9.4 mph W15.1 kmh W 16.4 mph26.4 kmh 29.96 in1014.6 mb 0.00 in0.0 mm 0.00 in0.0 mm 0.00 in0.0 mm
08:10 PM 60.5°F15.8°C 44.3°F6.8°C 55% 6.5 mph W10.5 kmh W 10.4 mph16.7 kmh 29.96 in1014.6 mb 0.00 in0.0 mm 0.00 in0.0 mm 0.00 in0.0 mm
08:15 PM 60.3°F15.7°C 44.1°F6.7°C 55% 7.2 mph W11.6 kmh W 11.9 mph19.2 kmh 29.96 in1014.6 mb 0.00 in0.0 mm 0.00 in0.0 mm 0.00 in0.0 mm
08:20 PM 60.3°F15.7°C 44.1°F6.7°C 55% 8.2 mph WNW13.2 kmh WNW 11.9 mph19.2 kmh 29.99 in1015.6 mb 0.00 in0.0 mm 0.00 in0.0 mm 0.00 in0.0 mm
08:25 PM 60.3°F15.7°C 44.1°F6.7°C 55% 9.5 mph W15.3 kmh W 11.9 mph19.2 kmh 29.99 in1015.6 mb 0.00 in0.0 mm 0.00 in0.0 mm 0.00 in0.0 mm
08:30 PM 60.3°F15.7°C 44.1°F6.7°C 55% 9.7 mph WNW15.6 kmh WNW 11.6 mph18.7 kmh 29.99 in1015.6 mb 0.00 in0.0 mm 0.00 in0.0 mm 0.00 in0.0 mm
08:35 PM 60.3°F15.7°C 44.1°F6.7°C 55% 9.0 mph W14.5 kmh W 13.7 mph22.0 kmh 29.99 in1015.6 mb 0.00 in0.0 mm 0.00 in0.0 mm 0.00 in0.0 mm
08:40 PM 60.2°F15.7°C 43.9°F6.6°C 55% 10.2 mph W16.4 kmh W 13.7 mph22.0 kmh 29.99 in1015.6 mb 0.00 in0.0 mm 0.00 in0.0 mm 0.00 in0.0 mm
08:45 PM 60.2°F15.7°C 43.9°F6.6°C 55% 9.4 mph W15.1 kmh W 13.7 mph22.0 kmh 29.99 in1015.6 mb 0.00 in0.0 mm 0.00 in0.0 mm 0.00 in0.0 mm
08:50 PM 60.2°F15.7°C 43.9°F6.6°C 55% 7.9 mph W12.7 kmh W 14.6 mph23.5 kmh 29.99 in1015.6 mb 0.00 in0.0 mm 0.00 in0.0 mm 0.00 in0.0 mm
08:55 PM 60.2°F15.7°C 43.9°F6.6°C 55% 8.9 mph W14.3 kmh W 14.6 mph23.5 kmh 29.99 in1015.6 mb 0.00 in0.0 mm 0.00 in0.0 mm 0.00 in0.0 mm
09:00 PM 60.2°F15.7°C 44.9°F7.2°C 57% 8.5 mph W13.7 kmh W 13.7 mph22.0 kmh 29.99 in1015.6 mb 0.00 in0.0 mm 0.00 in0.0 mm 0.00 in0.0 mm
09:05 PM 60.0°F15.6°C 44.2°F6.8°C 56% 7.9 mph W12.7 kmh W 14.0 mph22.5 kmh 29.99 in1015.6 mb 0.00 in0.0 mm 0.00 in0.0 mm 0.00 in0.0 mm
09:10 PM 59.8°F15.4°C 44.5°F6.9°C 57% 7.7 mph W12.4 kmh W 14.0 mph22.5 kmh 29.99 in1015.6 mb 0.00 in0.0 mm 0.00 in0.0 mm 0.00 in0.0 mm
09:15 PM 59.8°F15.4°C 44.5°F6.9°C 57% 7.2 mph W11.6 kmh W 9.5 mph15.3 kmh 29.99 in1015.6 mb 0.00 in0.0 mm 0.00 in0.0 mm 0.00 in0.0 mm
09:20 PM 59.6°F15.3°C 44.4°F6.9°C 57% 8.0 mph WSW12.9 kmh WSW 11.6 mph18.7 kmh 29.99 in1015.6 mb 0.00 in0.0 mm 0.00 in0.0 mm 0.00 in0.0 mm
09:25 PM 59.5°F15.3°C 44.2°F6.8°C 57% 7.9 mph WSW12.7 kmh WSW 11.6 mph18.7 kmh 29.99 in1015.6 mb 0.00 in0.0 mm 0.00 in0.0 mm 0.00 in0.0 mm
09:30 PM 59.5°F15.3°C 43.7°F6.5°C 56% 9.1 mph W14.6 kmh W 12.2 mph19.6 kmh 29.99 in1015.6 mb 0.00 in0.0 mm 0.00 in0.0 mm 0.00 in0.0 mm
09:35 PM 59.5°F15.3°C 44.2°F6.8°C 57% 9.3 mph W15.0 kmh W 12.2 mph19.6 kmh 29.99 in1015.6 mb 0.00 in0.0 mm 0.00 in0.0 mm 0.00 in0.0 mm
09:40 PM 59.5°F15.3°C 44.2°F6.8°C 57% 8.9 mph W14.3 kmh W 12.2 mph19.6 kmh 29.99 in1015.6 mb 0.00 in0.0 mm 0.00 in0.0 mm 0.00 in0.0 mm
09:45 PM 59.3°F15.2°C 44.5°F6.9°C 58% 8.4 mph WSW13.5 kmh WSW 11.6 mph18.7 kmh 29.99 in1015.6 mb 0.00 in0.0 mm 0.00 in0.0 mm 0.00 in0.0 mm
09:50 PM 59.3°F15.2°C 44.5°F6.9°C 58% 7.7 mph W12.4 kmh W 10.1 mph16.3 kmh 29.99 in1015.6 mb 0.00 in0.0 mm 0.00 in0.0 mm 0.00 in0.0 mm
09:55 PM 59.3°F15.2°C 44.5°F6.9°C 58% 9.7 mph W15.6 kmh W 18.1 mph29.1 kmh 29.99 in1015.6 mb 0.00 in0.0 mm 0.00 in0.0 mm 0.00 in0.0 mm
10:00 PM 59.3°F15.2°C 44.5°F6.9°C 58% 10.0 mph W16.1 kmh W 18.1 mph29.1 kmh 29.99 in1015.6 mb 0.00 in0.0 mm 0.00 in0.0 mm 0.00 in0.0 mm
10:05 PM 59.5°F15.3°C 45.1°F7.3°C 59% 7.7 mph WSW12.4 kmh WSW 11.6 mph18.7 kmh 29.99 in1015.6 mb 0.00 in0.0 mm 0.00 in0.0 mm 0.00 in0.0 mm
10:10 PM 59.5°F15.3°C 45.1°F7.3°C 59% 8.4 mph WSW13.5 kmh WSW 13.1 mph21.1 kmh 29.99 in1015.6 mb 0.00 in0.0 mm 0.00 in0.0 mm 0.00 in0.0 mm
10:15 PM 59.5°F15.3°C 45.1°F7.3°C 59% 9.4 mph WSW15.1 kmh WSW 13.1 mph21.1 kmh 29.99 in1015.6 mb 0.00 in0.0 mm 0.00 in0.0 mm 0.00 in0.0 mm
10:20 PM 59.5°F15.3°C 45.6°F7.6°C 60% 8.5 mph WSW13.7 kmh WSW 12.8 mph20.6 kmh 29.99 in1015.6 mb 0.00 in0.0 mm 0.00 in0.0 mm 0.00 in0.0 mm
10:25 PM 59.5°F15.3°C 45.6°F7.6°C 60% 8.3 mph WSW13.4 kmh WSW 12.8 mph20.6 kmh 29.99 in1015.6 mb 0.00 in0.0 mm 0.00 in0.0 mm 0.00 in0.0 mm
10:30 PM 59.3°F15.2°C 45.4°F7.4°C 60% 9.0 mph WSW14.5 kmh WSW 13.4 mph21.6 kmh 29.99 in1015.6 mb 0.00 in0.0 mm 0.00 in0.0 mm 0.00 in0.0 mm
10:35 PM 59.3°F15.2°C 45.4°F7.4°C 60% 8.3 mph WSW13.4 kmh WSW 13.4 mph21.6 kmh 30.02 in1016.6 mb 0.00 in0.0 mm 0.00 in0.0 mm 0.00 in0.0 mm
10:40 PM 59.1°F15.1°C 45.6°F7.6°C 61% 7.1 mph W11.4 kmh W 9.8 mph15.8 kmh 30.02 in1016.6 mb 0.00 in0.0 mm 0.00 in0.0 mm 0.00 in0.0 mm
10:45 PM 58.9°F14.9°C 45.0°F7.2°C 60% 7.1 mph WNW11.4 kmh WNW 9.8 mph15.8 kmh 30.02 in1016.6 mb 0.00 in0.0 mm 0.00 in0.0 mm 0.00 in0.0 mm
10:50 PM 58.7°F14.8°C 44.9°F7.2°C 60% 7.0 mph WNW11.3 kmh WNW 11.3 mph18.2 kmh 30.02 in1016.6 mb 0.00 in0.0 mm 0.00 in0.0 mm 0.00 in0.0 mm
10:55 PM 58.7°F14.8°C 44.9°F7.2°C 60% 7.0 mph WNW11.3 kmh WNW 11.3 mph18.2 kmh 30.02 in1016.6 mb 0.00 in0.0 mm 0.00 in0.0 mm 0.00 in0.0 mm
11:00 PM 58.5°F14.7°C 44.7°F7.1°C 60% 6.6 mph W10.6 kmh W 8.6 mph13.8 kmh 30.02 in1016.6 mb 0.00 in0.0 mm 0.00 in0.0 mm 0.00 in0.0 mm
11:05 PM 58.5°F14.7°C 45.1°F7.3°C 61% 4.9 mph WNW7.9 kmh WNW 8.0 mph12.9 kmh 30.02 in1016.6 mb 0.00 in0.0 mm 0.00 in0.0 mm 0.00 in0.0 mm
11:10 PM 58.5°F14.7°C 45.1°F7.3°C 61% 4.8 mph W7.7 kmh W 10.1 mph16.3 kmh 30.02 in1016.6 mb 0.00 in0.0 mm 0.00 in0.0 mm 0.00 in0.0 mm
11:15 PM 58.5°F14.7°C 45.6°F7.6°C 62% 5.9 mph WSW9.5 kmh WSW 10.1 mph16.3 kmh 30.02 in1016.6 mb 0.00 in0.0 mm 0.00 in0.0 mm 0.00 in0.0 mm
11:20 PM 58.5°F14.7°C 45.6°F7.6°C 62% 5.3 mph W8.5 kmh W 8.6 mph13.8 kmh 30.02 in1016.6 mb 0.00 in0.0 mm 0.00 in0.0 mm 0.00 in0.0 mm
11:25 PM 58.5°F14.7°C 46.0°F7.8°C 63% 4.8 mph W7.7 kmh W 8.0 mph12.9 kmh 30.02 in1016.6 mb 0.00 in0.0 mm 0.00 in0.0 mm 0.00 in0.0 mm
11:30 PM 58.5°F14.7°C 46.0°F7.8°C 63% 4.3 mph WSW6.9 kmh WSW 8.0 mph12.9 kmh 30.02 in1016.6 mb 0.00 in0.0 mm 0.00 in0.0 mm 0.00 in0.0 mm
11:35 PM 58.5°F14.7°C 46.0°F7.8°C 63% 5.0 mph WSW8.0 kmh WSW 7.1 mph11.4 kmh 29.99 in1015.6 mb 0.00 in0.0 mm 0.00 in0.0 mm 0.00 in0.0 mm
11:40 PM 58.5°F14.7°C 46.0°F7.8°C 63% 6.7 mph WSW10.8 kmh WSW 9.5 mph15.3 kmh 29.99 in1015.6 mb 0.00 in0.0 mm 0.00 in0.0 mm 0.00 in0.0 mm
11:45 PM 58.4°F14.7°C 45.8°F7.7°C 63% 6.6 mph WSW10.6 kmh WSW 9.5 mph15.3 kmh 29.99 in1015.6 mb 0.00 in0.0 mm 0.00 in0.0 mm 0.00 in0.0 mm
11:50 PM 58.5°F14.7°C 46.0°F7.8°C 63% 6.5 mph WSW10.5 kmh WSW 10.7 mph17.2 kmh 29.99 in1015.6 mb 0.00 in0.0 mm 0.00 in0.0 mm 0.00 in0.0 mm
11:55 PM 58.5°F14.7°C 46.0°F7.8°C 63% 5.6 mph SW9.0 kmh SW 10.7 mph17.2 kmh 29.99 in1015.6 mb 0.00 in0.0 mm 0.00 in0.0 mm 0.00 in0.0 mm